Three Mile, North Carolina
Current Conditions -  °F | °C
As of 8:35 PM on Monday 24 Nov 2014 (Local Time) from KTNB Reporting Station
Clear Clear  
Wind Chill:   Ceiling: Unl
Heat Index:   Visibility: 10mi
Dew Point:   Wind: 0mph
Humidity: 97%   Direction: NA
Pressure: 29.91"   Gusts: NA
Location:  36.0227°N, 81.9499°W
Report Text: KTNB 250135Z AUTO 00000KT 10SM CLR 08/08 A2991 RMK AO2 T00800076
Loading
Personal Weather Stations






























Interactive Weather Map New forecast layout! Learn more

10-Day Weather Forecast

Advertisements
Track Severe Weather on mobile